Aviation Digital Data Service (ADDS)

Output produced by METARs form (0231 UTC 01 November 2014)
found at http://aviationweather.gov/adds/metars/
 
KGSP 312346Z 0100/0124 28006KT P6SM VCSH SCT040 OVC070 
     TEMPO 0100/0102 VRB10KT 6SM SHRA BR BKN040 OVC070 
     FM010400 30008KT P6SM OVC040 
     FM010900 35011KT P6SM VCSH OVC030 
     FM011100 35011G20KT 6SM -SHRASN BR OVC025 
     FM011400 01015G26KT P6SM -SHRASN BKN030 
     FM011600 01016G27KT P6SM BKN050 
     FM012100 35014G24KT P6SM SCT060